createdAt,value
2022-09-15T00:00:39.507Z,93648.66
2022-09-15T00:01:36.169Z,93648.31
2022-09-15T00:02:32.965Z,93642.84
2022-09-15T00:03:30.038Z,93647.16
2022-09-15T00:04:26.716Z,93642.09
2022-09-15T00:05:23.391Z,93636.13
2022-09-15T00:06:20.283Z,93640.28
2022-09-15T00:07:17.079Z,93639.72
2022-09-15T00:08:13.876Z,93647.72
2022-09-15T00:09:10.618Z,93639.38
2022-09-15T00:10:09.353Z,93635.03
2022-09-15T00:11:14.707Z,93638.97
2022-09-15T00:12:11.292Z,93636.59
2022-09-15T00:13:07.980Z,93630.03
2022-09-15T00:14:06.903Z,93632.38
2022-09-15T00:15:05.050Z,93629.59
2022-09-15T00:16:04.161Z,93636.88
2022-09-15T00:17:00.810Z,93621.75
2022-09-15T00:17:57.464Z,93635.09
2022-09-15T00:18:54.017Z,93628.88
2022-09-15T00:19:50.667Z,93617.25
2022-09-15T00:20:47.371Z,93621.91
2022-09-15T00:21:44.013Z,93633.13
2022-09-15T00:22:40.612Z,93636.50
2022-09-15T00:23:37.945Z,93633.06
2022-09-15T00:24:34.624Z,93635.09
2022-09-15T00:25:31.241Z,93625.09
2022-09-15T00:26:29.913Z,93633.50
2022-09-15T00:27:26.494Z,93638.19
2022-09-15T00:28:23.160Z,93639.16
2022-09-15T00:29:19.804Z,93639.97
2022-09-15T00:30:16.506Z,93634.94
2022-09-15T00:31:19.399Z,93635.31
2022-09-15T00:32:16.083Z,93634.06
2022-09-15T00:33:14.186Z,93631.91
2022-09-15T00:34:12.878Z,93619.34
2022-09-15T00:35:09.740Z,93631.84
2022-09-15T00:36:11.538Z,93638.31
2022-09-15T00:37:08.297Z,93635.09
2022-09-15T00:38:05.111Z,93632.03
2022-09-15T00:39:01.741Z,93638.19
2022-09-15T00:39:58.448Z,93623.13
2022-09-15T00:40:57.296Z,93639.16
2022-09-15T00:41:53.887Z,93638.88
2022-09-15T00:42:50.491Z,93643.19
2022-09-15T00:43:50.298Z,93635.47
2022-09-15T00:44:57.671Z,93635.00
2022-09-15T00:45:54.320Z,93620.13
2022-09-15T00:47:15.335Z,93630.47
2022-09-15T00:48:15.740Z,93595.75
2022-09-15T00:49:31.731Z,93630.06
2022-09-15T00:50:28.556Z,93633.59
2022-09-15T00:51:32.685Z,93623.03
2022-09-15T00:52:36.291Z,93623.47
2022-09-15T00:53:33.688Z,93625.38
2022-09-15T00:54:36.959Z,93614.63
2022-09-15T00:55:38.100Z,93626.59
2022-09-15T00:56:36.833Z,93626.44
2022-09-15T00:57:42.490Z,93622.91
2022-09-15T00:58:46.415Z,93619.09
2022-09-15T00:59:44.566Z,93624.69
2022-09-15T01:00:48.174Z,93616.88
2022-09-15T01:01:47.235Z,93627.75
2022-09-15T01:02:46.317Z,93619.69
2022-09-15T01:03:43.406Z,93619.56
2022-09-15T01:04:40.108Z,93616.03
2022-09-15T01:05:42.867Z,93619.56
2022-09-15T01:06:47.365Z,93604.50
2022-09-15T01:07:52.841Z,93619.19
2022-09-15T01:09:15.569Z,93615.53
2022-09-15T01:10:24.595Z,93613.09
2022-09-15T01:11:21.311Z,93625.72
2022-09-15T01:12:18.801Z,93624.03
2022-09-15T01:13:15.547Z,93617.91
2022-09-15T01:14:12.620Z,93628.19
2022-09-15T01:15:09.538Z,93617.69
2022-09-15T01:16:06.154Z,93612.50
2022-09-15T01:17:31.030Z,93612.38
2022-09-15T01:18:36.602Z,93617.50
2022-09-15T01:19:38.857Z,93614.88
2022-09-15T01:20:47.699Z,93616.94
2022-09-15T01:21:58.998Z,93608.84
2022-09-15T01:23:24.909Z,93610.25
2022-09-15T01:24:57.157Z,93610.56
2022-09-15T01:26:06.284Z,93620.34
2022-09-15T01:27:41.159Z,93625.44
2022-09-15T01:29:12.089Z,93617.50
2022-09-15T01:30:12.318Z,93622.69
2022-09-15T01:31:57.967Z,93621.19
2022-09-15T01:33:20.848Z,93618.00
2022-09-15T01:34:20.900Z,93611.00
2022-09-15T01:35:17.421Z,93619.69
2022-09-15T01:36:38.708Z,93615.97
2022-09-15T01:37:40.666Z,93604.72
2022-09-15T01:38:49.354Z,93612.59
2022-09-15T01:39:50.492Z,93599.66
2022-09-15T01:40:54.136Z,93619.09
2022-09-15T01:41:56.840Z,93621.38
2022-09-15T01:42:55.917Z,93610.00
2022-09-15T01:44:05.417Z,93618.28
2022-09-15T01:45:08.769Z,93612.44
2022-09-15T01:46:07.473Z,93619.44
2022-09-15T01:47:08.018Z,93615.53
2022-09-15T01:48:07.292Z,93602.19
2022-09-15T01:49:07.135Z,93613.03
2022-09-15T01:50:11.723Z,93611.13
2022-09-15T01:51:09.545Z,93605.06
2022-09-15T01:52:06.674Z,93604.75
2022-09-15T01:53:09.980Z,93611.72
2022-09-15T01:54:07.754Z,93598.56
2022-09-15T01:55:18.661Z,93612.34
2022-09-15T01:56:15.257Z,93614.72
2022-09-15T01:57:11.911Z,93612.16
2022-09-15T01:58:08.881Z,93611.00
2022-09-15T01:59:06.041Z,93610.00
2022-09-15T02:00:03.073Z,93603.91
2022-09-15T02:01:12.504Z,93611.97
2022-09-15T02:02:17.688Z,93589.28
2022-09-15T02:03:22.307Z,93596.91
2022-09-15T02:04:18.879Z,93601.59
2022-09-15T02:05:25.683Z,93592.44
2022-09-15T02:06:52.126Z,93597.94
2022-09-15T02:08:05.510Z,93596.13
2022-09-15T02:09:32.643Z,93597.75
2022-09-15T02:10:49.471Z,93599.69
2022-09-15T02:12:35.401Z,93597.38
2022-09-15T02:13:42.883Z,93598.91
2022-09-15T02:14:51.907Z,93596.97
2022-09-15T02:15:52.373Z,93600.00
2022-09-15T02:16:52.781Z,93603.38
2022-09-15T02:17:54.288Z,93603.84
2022-09-15T02:19:22.328Z,93611.78
2022-09-15T02:20:43.357Z,93599.91
2022-09-15T02:21:54.155Z,93606.31
2022-09-15T02:22:55.801Z,93605.09
2022-09-15T02:23:57.188Z,93615.78
2022-09-15T02:25:02.893Z,93598.94
2022-09-15T02:26:06.569Z,93598.22
2022-09-15T02:27:10.112Z,93609.75
2022-09-15T02:28:10.471Z,93604.75
2022-09-15T02:29:09.951Z,93591.28
2022-09-15T02:30:11.791Z,93595.53
2022-09-15T02:31:14.204Z,93603.59
2022-09-15T02:32:12.440Z,93594.38
2022-09-15T02:33:14.507Z,93594.75
2022-09-15T02:34:15.837Z,93596.28
2022-09-15T02:35:13.610Z,93598.19
2022-09-15T02:36:13.605Z,93588.22
2022-09-15T02:37:10.924Z,93596.28
2022-09-15T02:38:09.528Z,93592.06
2022-09-15T02:39:13.198Z,93593.59
2022-09-15T02:40:10.516Z,93596.63
2022-09-15T02:41:07.145Z,93602.03
2022-09-15T02:42:04.194Z,93602.72
2022-09-15T02:43:02.953Z,93607.78
2022-09-15T02:43:59.561Z,93605.13
2022-09-15T02:44:56.818Z,93599.34
2022-09-15T02:45:55.194Z,93605.13
2022-09-15T02:46:52.410Z,93602.03
2022-09-15T02:47:50.339Z,93607.81
2022-09-15T02:48:47.179Z,93602.44
2022-09-15T02:49:43.762Z,93605.53
2022-09-15T02:50:41.280Z,93605.06
2022-09-15T02:51:37.849Z,93601.22
2022-09-15T02:52:34.421Z,93602.44
2022-09-15T02:53:30.988Z,93603.16
2022-09-15T02:54:27.548Z,93591.22
2022-09-15T02:55:29.080Z,93573.88
2022-09-15T02:56:25.672Z,93597.34
2022-09-15T02:57:22.226Z,93592.28
2022-09-15T02:58:18.781Z,93599.63
2022-09-15T02:59:15.344Z,93596.97
2022-09-15T03:00:14.614Z,93597.31
2022-09-15T03:01:15.602Z,93593.50
2022-09-15T03:02:12.705Z,93589.69
2022-09-15T03:03:09.363Z,93586.94
2022-09-15T03:04:05.967Z,93592.81
2022-09-15T03:05:02.669Z,93565.88
2022-09-15T03:06:16.513Z,93561.66
2022-09-15T03:07:13.593Z,93589.38
2022-09-15T03:08:10.336Z,93593.59
2022-09-15T03:09:08.202Z,93591.28
2022-09-15T03:10:07.264Z,93597.81
2022-09-15T03:11:04.208Z,93598.59
2022-09-15T03:12:00.842Z,93599.75
2022-09-15T03:12:57.430Z,93599.72
2022-09-15T03:13:59.734Z,93608.53
2022-09-15T03:14:56.312Z,93604.66
2022-09-15T03:15:52.930Z,93606.53
2022-09-15T03:16:49.546Z,93606.09
2022-09-15T03:17:47.879Z,93604.16
2022-09-15T03:18:44.535Z,93594.56
2022-09-15T03:19:41.188Z,93601.53
2022-09-15T03:20:37.832Z,93597.25
2022-09-15T03:21:35.792Z,93572.59
2022-09-15T03:22:32.473Z,93593.34
2022-09-15T03:23:29.038Z,93591.06
2022-09-15T03:24:25.626Z,93597.53
2022-09-15T03:25:22.691Z,93594.03
2022-09-15T03:26:19.355Z,93607.63
2022-09-15T03:27:15.910Z,93605.00
2022-09-15T03:28:12.674Z,93603.13
2022-09-15T03:29:09.271Z,93587.03
2022-09-15T03:30:07.263Z,93600.91
2022-09-15T03:31:04.554Z,93616.66
2022-09-15T03:32:01.379Z,93622.06
2022-09-15T03:32:58.018Z,93628.22
2022-09-15T03:33:56.103Z,93629.38
2022-09-15T03:34:56.443Z,93588.91
2022-09-15T03:35:54.987Z,93611.56
2022-09-15T03:36:51.645Z,93622.72
2022-09-15T03:37:48.229Z,93625.88
2022-09-15T03:38:44.896Z,93619.72
2022-09-15T03:39:41.575Z,93613.09
2022-09-15T03:40:38.176Z,93618.38
2022-09-15T03:41:34.830Z,93613.72
2022-09-15T03:42:31.982Z,93622.09
2022-09-15T03:43:30.135Z,93623.28
2022-09-15T03:44:26.984Z,93616.84
2022-09-15T03:45:23.628Z,93626.41
2022-09-15T03:46:20.510Z,93622.53
2022-09-15T03:47:17.498Z,93624.78
2022-09-15T03:48:14.042Z,93630.47
2022-09-15T03:49:10.623Z,93622.44
2022-09-15T03:50:07.336Z,93621.25
2022-09-15T03:51:05.764Z,93618.88
2022-09-15T03:52:02.762Z,93626.06
2022-09-15T03:53:02.123Z,93620.41
2022-09-15T03:53:58.903Z,93603.47
2022-09-15T03:54:55.706Z,93607.22
2022-09-15T03:55:52.349Z,93611.78
2022-09-15T03:56:49.161Z,93622.50
2022-09-15T03:57:45.902Z,93619.06
2022-09-15T03:58:42.514Z,93620.56
2022-09-15T03:59:39.157Z,93617.81
2022-09-15T04:00:35.824Z,93610.16
2022-09-15T04:01:32.678Z,93614.75
2022-09-15T04:02:29.860Z,93611.13
2022-09-15T04:03:26.436Z,93612.16
2022-09-15T04:04:22.997Z,93610.16
2022-09-15T04:05:19.607Z,93609.94
2022-09-15T04:06:16.792Z,93607.91
2022-09-15T04:07:13.377Z,93610.09
2022-09-15T04:08:12.845Z,93614.63
2022-09-15T04:09:10.316Z,93612.16
2022-09-15T04:10:08.644Z,93621.91
2022-09-15T04:11:06.326Z,93611.34
2022-09-15T04:12:04.030Z,93607.63
2022-09-15T04:13:00.620Z,93599.56
2022-09-15T04:13:57.646Z,93614.06
2022-09-15T04:14:54.278Z,93611.25
2022-09-15T04:16:04.734Z,93609.25
2022-09-15T04:17:01.352Z,93610.38
2022-09-15T04:17:58.279Z,93617.97
2022-09-15T04:18:55.449Z,93605.31
2022-09-15T04:19:52.040Z,93610.66
2022-09-15T04:20:48.614Z,93605.84
2022-09-15T04:21:47.411Z,93610.53
2022-09-15T04:22:45.105Z,93605.69
2022-09-15T04:23:42.848Z,93608.03
2022-09-15T04:24:39.483Z,93604.09
2022-09-15T04:25:36.107Z,93592.16
2022-09-15T04:26:35.666Z,93604.75
2022-09-15T04:27:35.637Z,93610.56
2022-09-15T04:28:35.038Z,93602.63
2022-09-15T04:29:31.647Z,93591.44
2022-09-15T04:30:28.311Z,93591.75
2022-09-15T04:31:25.089Z,93597.59
2022-09-15T04:32:22.058Z,93606.38
2022-09-15T04:33:18.668Z,93606.72
2022-09-15T04:34:15.265Z,93609.41
2022-09-15T04:35:12.341Z,93614.53
2022-09-15T04:36:12.378Z,93603.75
2022-09-15T04:37:09.011Z,93607.44
2022-09-15T04:38:05.701Z,93617.94
2022-09-15T04:39:02.550Z,93623.25
2022-09-15T04:39:59.643Z,93608.13
2022-09-15T04:40:56.367Z,93631.78
2022-09-15T04:41:53.057Z,93623.31
2022-09-15T04:42:49.741Z,93615.09
2022-09-15T04:43:47.031Z,93602.03
2022-09-15T04:44:43.754Z,93621.91
2022-09-15T04:45:40.988Z,93603.44
2022-09-15T04:46:37.668Z,93610.81
2022-09-15T04:47:34.688Z,93602.19
2022-09-15T04:48:31.981Z,93623.63
2022-09-15T04:49:29.077Z,93625.09
2022-09-15T04:50:25.681Z,93624.00
2022-09-15T04:51:23.203Z,93618.66
2022-09-15T04:52:19.979Z,93622.03
2022-09-15T04:53:16.881Z,93626.28
2022-09-15T04:54:13.533Z,93615.59
2022-09-15T04:55:10.630Z,93613.28
2022-09-15T04:56:13.029Z,93597.81
2022-09-15T04:57:09.650Z,93597.53
2022-09-15T04:58:06.992Z,93613.78
2022-09-15T04:59:04.400Z,93621.47
2022-09-15T05:00:01.108Z,93599.50
2022-09-15T05:00:57.841Z,93591.47
2022-09-15T05:01:56.103Z,93613.41
2022-09-15T05:02:53.566Z,93621.88
2022-09-15T05:03:50.514Z,93605.06
2022-09-15T05:04:48.932Z,93607.34
2022-09-15T05:05:47.659Z,93607.34
2022-09-15T05:06:44.263Z,93606.94
2022-09-15T05:07:41.011Z,93614.66
2022-09-15T05:08:38.031Z,93611.97
2022-09-15T05:09:34.626Z,93605.44
2022-09-15T05:10:31.626Z,93607.34
2022-09-15T05:11:28.462Z,93609.28
2022-09-15T05:12:25.046Z,93600.88
2022-09-15T05:13:21.624Z,93609.34
2022-09-15T05:14:18.253Z,93606.66
2022-09-15T05:15:14.924Z,93593.59
2022-09-15T05:16:16.822Z,93605.13
2022-09-15T05:17:13.448Z,93603.59
2022-09-15T05:18:10.048Z,93594.75
2022-09-15T05:19:06.692Z,93602.06
2022-09-15T05:20:04.929Z,93603.97
2022-09-15T05:21:02.734Z,93591.28
2022-09-15T05:21:59.274Z,93602.06
2022-09-15T05:22:55.860Z,93600.53
2022-09-15T05:23:52.840Z,93605.16
2022-09-15T05:24:49.545Z,93605.91
2022-09-15T05:25:55.130Z,93587.44
2022-09-15T05:26:51.713Z,93598.22
2022-09-15T05:27:48.328Z,93602.78
2022-09-15T05:28:45.018Z,93599.69
2022-09-15T05:29:41.562Z,93606.25
2022-09-15T05:30:44.136Z,93602.00
2022-09-15T05:31:41.231Z,93605.47
2022-09-15T05:32:37.884Z,93599.34
2022-09-15T05:33:34.908Z,93603.16
2022-09-15T05:34:31.554Z,93604.28
2022-09-15T05:35:28.263Z,93603.41
2022-09-15T05:36:25.594Z,93607.28
2022-09-15T05:37:22.273Z,93600.41
2022-09-15T05:38:18.984Z,93581.94
2022-09-15T05:39:15.758Z,93598.88
2022-09-15T05:40:12.527Z,93590.03
2022-09-15T05:41:17.719Z,93591.16
2022-09-15T05:42:14.304Z,93586.16
2022-09-15T05:43:11.408Z,93580.75
2022-09-15T05:44:10.058Z,93587.31
2022-09-15T05:45:07.629Z,93569.22
2022-09-15T05:46:05.128Z,93576.47
2022-09-15T05:47:01.961Z,93572.28
2022-09-15T05:47:58.564Z,93572.69
2022-09-15T05:48:57.038Z,93566.88
2022-09-15T05:49:54.940Z,93567.16
2022-09-15T05:50:53.428Z,93564.81
2022-09-15T05:51:50.096Z,93565.56
2022-09-15T05:52:51.587Z,93562.88
2022-09-15T05:53:48.772Z,93574.75
2022-09-15T05:54:45.532Z,93563.19
2022-09-15T05:55:42.131Z,93571.97
2022-09-15T05:56:38.741Z,93576.09
2022-09-15T05:57:35.311Z,93577.66
2022-09-15T05:58:32.694Z,93583.50
2022-09-15T05:59:29.245Z,93586.16
2022-09-15T06:00:26.064Z,93596.22
2022-09-15T06:01:25.082Z,93593.88
2022-09-15T06:02:21.738Z,93594.09
2022-09-15T06:03:18.444Z,93593.63
2022-09-15T06:04:15.071Z,93596.72
2022-09-15T06:05:11.633Z,93599.34
2022-09-15T06:06:10.732Z,93591.16
2022-09-15T06:07:07.355Z,93586.50
2022-09-15T06:08:03.948Z,93591.78
2022-09-15T06:09:01.848Z,93599.44
2022-09-15T06:09:58.780Z,93598.16
2022-09-15T06:10:55.370Z,93596.59
2022-09-15T06:11:52.357Z,93594.28
2022-09-15T06:12:49.543Z,93590.88
2022-09-15T06:13:47.355Z,93591.97
2022-09-15T06:14:45.884Z,93583.53
2022-09-15T06:15:42.599Z,93583.28
2022-09-15T06:16:39.313Z,93577.84
2022-09-15T06:17:35.880Z,93581.31
2022-09-15T06:18:33.818Z,93573.16
2022-09-15T06:19:33.454Z,93562.03
2022-09-15T06:20:30.018Z,93576.63
2022-09-15T06:21:28.987Z,93570.78
2022-09-15T06:22:25.538Z,93579.97
2022-09-15T06:23:22.125Z,93575.44
2022-09-15T06:24:18.683Z,93575.09
2022-09-15T06:25:15.395Z,93580.41
2022-09-15T06:26:14.131Z,93579.13
2022-09-15T06:27:10.725Z,93577.28
2022-09-15T06:28:07.341Z,93576.81
2022-09-15T06:29:05.313Z,93573.41
2022-09-15T06:30:02.044Z,93567.81
2022-09-15T06:30:58.627Z,93574.22
2022-09-15T06:31:57.116Z,93565.41
2022-09-15T06:32:54.114Z,93575.59
2022-09-15T06:33:53.091Z,93578.16
2022-09-15T06:34:49.805Z,93578.00
2022-09-15T06:35:46.389Z,93574.66
2022-09-15T06:36:43.039Z,93578.00
2022-09-15T06:37:39.623Z,93573.53
2022-09-15T06:38:36.188Z,93581.06
2022-09-15T06:39:33.112Z,93571.41
2022-09-15T06:40:30.698Z,93576.31
2022-09-15T06:41:38.272Z,93575.16
2022-09-15T06:42:43.947Z,93577.13
2022-09-15T06:43:41.063Z,93566.75
2022-09-15T06:44:38.419Z,93571.38
2022-09-15T06:45:35.018Z,93566.63
2022-09-15T06:46:31.889Z,93575.34
2022-09-15T06:47:33.895Z,93554.09
2022-09-15T06:48:32.213Z,93574.53
2022-09-15T06:49:29.076Z,93575.63
2022-09-15T06:50:25.650Z,93559.78
2022-09-15T06:51:25.060Z,93566.75
2022-09-15T06:52:21.611Z,93581.25
2022-09-15T06:53:18.204Z,93568.88
2022-09-15T06:54:16.254Z,93588.09
2022-09-15T06:55:12.896Z,93594.53
2022-09-15T06:56:15.462Z,93593.97
2022-09-15T06:57:12.001Z,93596.81
2022-09-15T06:58:08.819Z,93595.56
2022-09-15T06:59:05.755Z,93597.63
2022-09-15T07:00:03.721Z,93591.66
2022-09-15T07:01:02.487Z,93601.81
2022-09-15T07:02:04.096Z,93584.19
2022-09-15T07:03:01.538Z,93605.19
2022-09-15T07:04:01.107Z,93602.41
2022-09-15T07:04:57.697Z,93601.66
2022-09-15T07:05:54.272Z,93597.59
2022-09-15T07:06:51.062Z,93607.66
2022-09-15T07:07:47.648Z,93612.28
2022-09-15T07:08:45.438Z,93605.00
2022-09-15T07:09:45.058Z,93614.06
2022-09-15T07:12:38.205Z,93617.19
2022-09-15T07:13:35.100Z,93621.31
2022-09-15T07:14:31.662Z,93626.09
2022-09-15T07:15:28.294Z,93626.34
2022-09-15T07:16:28.362Z,93634.81
2022-09-15T07:17:26.572Z,93638.44
2022-09-15T07:18:23.942Z,93641.56
2022-09-15T07:19:20.577Z,93626.41
2022-09-15T07:20:17.224Z,93637.50
2022-09-15T07:21:16.458Z,93648.75
2022-09-15T07:22:13.060Z,93638.31
2022-09-15T07:23:09.705Z,93635.69
2022-09-15T07:24:07.888Z,93634.28
2022-09-15T07:25:04.896Z,93647.81
2022-09-15T07:26:12.196Z,93648.16
2022-09-15T07:27:09.617Z,93646.91
2022-09-15T07:28:06.152Z,93651.38
2022-09-15T07:29:06.782Z,93644.44
2022-09-15T07:30:04.140Z,93645.75
2022-09-15T07:31:01.128Z,93651.56
2022-09-15T07:31:57.787Z,93642.28
2022-09-15T07:32:57.125Z,93640.25
2022-09-15T07:33:53.938Z,93649.34
2022-09-15T07:34:53.695Z,93647.25
2022-09-15T07:35:53.127Z,93645.88
2022-09-15T07:36:49.739Z,93652.69
2022-09-15T07:37:46.361Z,93655.25
2022-09-15T07:38:48.174Z,93659.56
2022-09-15T07:39:44.781Z,93657.19
2022-09-15T07:40:41.761Z,93655.31
2022-09-15T07:41:38.502Z,93657.28
2022-09-15T07:42:35.617Z,93659.84
2022-09-15T07:43:33.196Z,93653.00
2022-09-15T07:44:29.760Z,93650.22
2022-09-15T07:45:26.473Z,93655.03
2022-09-15T07:46:25.140Z,93646.81
2022-09-15T07:47:21.736Z,93643.84
2022-09-15T07:48:18.306Z,93646.66
2022-09-15T07:49:14.897Z,93641.97
2022-09-15T07:50:14.304Z,93639.66
2022-09-15T07:51:10.939Z,93640.06
2022-09-15T07:52:07.544Z,93636.28
2022-09-15T07:53:04.671Z,93637.25
2022-09-15T07:54:01.747Z,93613.06
2022-09-15T07:54:58.399Z,93631.78
2022-09-15T07:55:55.922Z,93632.19
2022-09-15T07:56:52.731Z,93631.09
2022-09-15T07:57:59.427Z,93632.72
2022-09-15T07:58:56.764Z,93631.22
2022-09-15T07:59:53.362Z,93638.38
2022-09-15T08:00:50.202Z,93631.06
2022-09-15T08:01:46.932Z,93648.56
2022-09-15T08:02:43.621Z,93647.03
2022-09-15T08:03:42.915Z,93641.91
2022-09-15T08:04:39.486Z,93644.03
2022-09-15T08:05:40.330Z,93646.34
2022-09-15T08:06:38.940Z,93644.56
2022-09-15T08:07:35.636Z,93649.53
2022-09-15T08:08:32.306Z,93649.28
2022-09-15T08:09:29.123Z,93649.38
2022-09-15T08:10:26.209Z,93652.66
2022-09-15T08:11:22.778Z,93654.97
2022-09-15T08:12:19.452Z,93654.22
2022-09-15T08:13:16.025Z,93651.09
2022-09-15T08:14:12.845Z,93649.28
2022-09-15T08:15:12.193Z,93655.06
2022-09-15T08:16:12.479Z,93648.97
2022-09-15T08:17:11.788Z,93646.06
2022-09-15T08:18:08.508Z,93645.63
2022-09-15T08:19:05.463Z,93648.56
2022-09-15T08:20:02.288Z,93646.53
2022-09-15T08:20:59.007Z,93643.88
2022-09-15T08:21:55.722Z,93643.88
2022-09-15T08:22:52.988Z,93638.41
2022-09-15T08:23:56.098Z,93625.19
2022-09-15T08:24:52.851Z,93637.97
2022-09-15T08:25:51.525Z,93638.84
2022-09-15T08:26:48.707Z,93640.94
2022-09-15T08:27:45.460Z,93638.00
2022-09-15T08:28:42.460Z,93626.59
2022-09-15T08:29:39.156Z,93631.53
2022-09-15T08:30:35.744Z,93631.50
2022-09-15T08:31:32.433Z,93628.78
2022-09-15T08:32:30.023Z,93638.03
2022-09-15T08:33:27.624Z,93630.53
2022-09-15T08:34:24.647Z,93633.38
2022-09-15T08:35:21.411Z,93633.03
2022-09-15T08:36:18.408Z,93629.06
2022-09-15T08:37:16.076Z,93618.09
2022-09-15T08:38:12.717Z,93619.75
2022-09-15T08:39:09.512Z,93602.94
2022-09-15T08:40:06.760Z,93619.56
2022-09-15T08:41:12.689Z,93615.19
2022-09-15T08:42:16.398Z,93614.28
2022-09-15T08:43:23.476Z,93622.75
2022-09-15T08:44:55.678Z,93621.97
2022-09-15T08:46:03.349Z,93622.56
2022-09-15T08:47:29.948Z,93610.78
2022-09-15T08:48:33.942Z,93623.78
2022-09-15T08:49:51.965Z,93607.09
2022-09-15T08:50:52.429Z,93619.00
2022-09-15T08:51:51.300Z,93616.78
2022-09-15T08:53:12.958Z,93617.78
2022-09-15T08:54:38.995Z,93613.84
2022-09-15T08:55:55.277Z,93616.69
2022-09-15T08:56:52.280Z,93601.75
2022-09-15T08:57:48.857Z,93619.84
2022-09-15T08:58:46.145Z,93621.16
2022-09-15T08:59:43.368Z,93614.69
2022-09-15T09:00:40.897Z,93619.63
2022-09-15T09:01:40.180Z,93616.72
2022-09-15T09:02:56.098Z,93611.06
2022-09-15T09:04:17.933Z,93605.06
2022-09-15T09:05:20.607Z,93603.72
2022-09-15T09:06:35.006Z,93604.81
2022-09-15T09:07:40.710Z,93590.69
2022-09-15T09:08:56.889Z,93589.16
2022-09-15T09:10:20.565Z,93588.81
2022-09-15T09:11:23.177Z,93583.34
2022-09-15T09:12:37.623Z,93587.28
2022-09-15T09:13:51.257Z,93586.66
2022-09-15T09:14:58.750Z,93558.25
2022-09-15T09:16:29.191Z,93587.56
2022-09-15T09:18:10.343Z,93572.41
2022-09-15T09:19:31.988Z,93578.88
2022-09-15T09:20:47.145Z,93573.78
2022-09-15T09:21:57.783Z,93568.53
2022-09-15T09:22:54.597Z,93563.81
2022-09-15T09:24:19.836Z,93568.25
2022-09-15T09:25:27.244Z,93566.69
2022-09-15T09:26:25.960Z,93567.81
2022-09-15T09:27:26.558Z,93559.88
2022-09-15T09:28:37.831Z,93565.28
2022-09-15T09:29:39.589Z,93561.56
2022-09-15T09:30:37.019Z,93556.72
2022-09-15T09:31:36.100Z,93554.00
2022-09-15T09:32:40.994Z,93556.56
2022-09-15T09:33:51.494Z,93560.88
2022-09-15T09:35:00.520Z,93553.72
2022-09-15T09:36:00.030Z,93549.56
2022-09-15T09:37:08.422Z,93556.34
2022-09-15T09:38:05.167Z,93560.44
2022-09-15T09:39:03.601Z,93560.16
2022-09-15T09:40:00.781Z,93558.25
2022-09-15T09:41:02.144Z,93558.69
2022-09-15T09:41:59.546Z,93560.94
2022-09-15T09:42:56.638Z,93555.34
2022-09-15T09:43:55.866Z,93559.31
2022-09-15T09:44:52.540Z,93556.09
2022-09-15T09:45:49.587Z,93561.78
2022-09-15T09:46:47.471Z,93563.56
2022-09-15T09:47:46.294Z,93560.47
2022-09-15T09:49:18.711Z,93564.34
2022-09-15T09:50:50.790Z,93561.00
2022-09-15T09:52:02.450Z,93564.41
2022-09-15T09:52:59.560Z,93552.06
2022-09-15T09:53:56.200Z,93558.94
2022-09-15T09:55:01.563Z,93541.53
2022-09-15T09:56:25.975Z,93554.28
2022-09-15T09:57:29.100Z,93551.34
2022-09-15T09:58:25.849Z,93565.22
2022-09-15T09:59:33.815Z,93550.22
2022-09-15T10:00:32.190Z,93553.13
2022-09-15T10:01:29.407Z,93548.63
2022-09-15T10:02:27.215Z,93567.97
2022-09-15T10:03:30.620Z,93558.25
2022-09-15T10:04:29.645Z,93548.22
2022-09-15T10:05:26.606Z,93559.09
2022-09-15T10:06:23.274Z,93552.28
2022-09-15T10:07:26.069Z,93549.34
2022-09-15T10:08:22.641Z,93537.91
2022-09-15T10:09:19.827Z,93551.53
2022-09-15T10:10:25.836Z,93536.41
2022-09-15T10:11:38.368Z,93545.47
2022-09-15T10:12:41.242Z,93538.50
2022-09-15T10:13:52.590Z,93550.72
2022-09-15T10:14:56.767Z,93543.00
2022-09-15T10:15:56.555Z,93538.84
2022-09-15T10:17:00.350Z,93538.84
2022-09-15T10:17:57.504Z,93538.38
2022-09-15T10:18:57.832Z,93538.38
2022-09-15T10:19:59.026Z,93528.91
2022-09-15T10:20:55.821Z,93527.53
2022-09-15T10:21:52.476Z,93541.72
2022-09-15T10:22:49.151Z,93538.50
2022-09-15T10:23:45.752Z,93525.47
2022-09-15T10:24:42.449Z,93537.22
2022-09-15T10:25:58.080Z,93543.25
2022-09-15T10:27:32.757Z,93539.59
2022-09-15T10:28:29.654Z,93540.97
2022-09-15T10:29:26.221Z,93530.94
2022-09-15T10:30:23.510Z,93549.16
2022-09-15T10:31:31.547Z,93539.78
2022-09-15T10:32:31.011Z,93540.81
2022-09-15T10:33:38.700Z,93537.72
2022-09-15T10:34:36.373Z,93536.50
2022-09-15T10:35:33.494Z,93536.97
2022-09-15T10:36:31.900Z,93538.41
2022-09-15T10:37:36.856Z,93531.94
2022-09-15T10:38:49.959Z,93534.00
2022-09-15T10:39:53.925Z,93523.03
2022-09-15T10:40:55.814Z,93523.28
2022-09-15T10:42:21.870Z,93538.38
2022-09-15T10:43:54.571Z,93540.56
2022-09-15T10:44:57.731Z,93536.22
2022-09-15T10:46:39.210Z,93531.66
2022-09-15T10:47:39.860Z,93536.28
2022-09-15T10:49:11.842Z,93533.25
2022-09-15T10:50:26.828Z,93532.47
2022-09-15T10:51:46.588Z,93532.31
2022-09-15T10:53:10.696Z,93537.72
2022-09-15T10:54:41.282Z,93528.53
2022-09-15T10:55:53.382Z,93529.66
2022-09-15T10:56:57.714Z,93519.47
2022-09-15T10:58:14.308Z,93520.09
2022-09-15T10:59:54.439Z,93517.31
2022-09-15T11:01:05.353Z,93513.72
2022-09-15T11:02:25.120Z,93518.75
2022-09-15T11:03:38.685Z,93513.53
2022-09-15T11:04:41.053Z,93510.28
2022-09-15T11:05:53.764Z,93514.25
2022-09-15T11:07:00.493Z,93502.13
2022-09-15T11:08:31.801Z,93500.56
2022-09-15T11:09:34.902Z,93491.19
2022-09-15T11:10:50.455Z,93498.91
2022-09-15T11:12:05.100Z,93506.19
2022-09-15T11:13:27.131Z,93500.22
2022-09-15T11:14:35.517Z,93498.41
2022-09-15T11:15:50.526Z,93499.06
2022-09-15T11:16:59.121Z,93500.88
2022-09-15T11:18:23.483Z,93495.59
2022-09-15T11:19:30.949Z,93491.22
2022-09-15T11:20:46.244Z,93491.16
2022-09-15T11:21:51.280Z,93498.84
2022-09-15T11:22:59.622Z,93497.50
2022-09-15T11:23:56.186Z,93490.53
2022-09-15T11:25:13.841Z,93458.50
2022-09-15T11:26:19.202Z,93488.09
2022-09-15T11:27:33.370Z,93488.53
2022-09-15T11:28:54.121Z,93482.94
2022-09-15T11:30:01.194Z,93486.66
2022-09-15T11:31:27.675Z,93484.81
2022-09-15T11:32:27.960Z,93484.81
2022-09-15T11:33:58.247Z,93477.75
2022-09-15T11:35:29.199Z,93477.44
2022-09-15T11:36:46.023Z,93489.03
2022-09-15T11:37:48.439Z,93477.44
2022-09-15T11:39:03.375Z,93479.72
2022-09-15T11:40:25.820Z,93480.69
2022-09-15T11:41:25.884Z,93477.84
2022-09-15T11:42:48.665Z,93478.88
2022-09-15T11:44:00.216Z,93473.22
2022-09-15T11:44:58.853Z,93468.44
2022-09-15T11:45:56.876Z,93477.09
2022-09-15T11:47:05.484Z,93483.50
2022-09-15T11:48:16.560Z,93477.00
2022-09-15T11:49:18.746Z,93473.25
2022-09-15T11:50:18.245Z,93475.75
2022-09-15T11:51:19.973Z,93466.97
2022-09-15T11:52:44.439Z,93476.31
2022-09-15T11:53:48.271Z,93476.00
2022-09-15T11:54:51.427Z,93462.41
2022-09-15T11:56:06.684Z,93470.03
2022-09-15T11:57:03.536Z,93464.66
2022-09-15T11:58:09.258Z,93475.00
2022-09-15T11:59:36.512Z,93466.56
2022-09-15T12:00:38.125Z,93447.78
2022-09-15T12:01:44.507Z,93461.09
2022-09-15T12:02:48.809Z,93463.28
2022-09-15T12:03:45.460Z,93452.97
2022-09-15T12:05:11.362Z,93455.66
2022-09-15T12:06:15.996Z,93455.69